PASN/SNP METAR and TAF weather

Enter ICAO airport designator
Station Type Date Time Source
PASN METAR 2019/10/20 17:53 UTC NOAA

PASN 201753Z AUTO 00000KT 10SM SCT023 BKN034 03/00 A2944 RMK SLP971 T00280000 10044 21006 53001 TSNO VIA AUTODIAL


Station Type Date Time Source
PASN Decoded METAR 2019/10/20 17:53 UTC NOAA

ST PAUL ISLAND AIRPORT, AK, United States (PASN) 57-10N 170-13W 9M
Oct 20, 2019 - 01:53 PM EDT / 2019.10.20 1753 UTC
Wind: Calm:0
Visibility: 10 mile(s):0
Sky conditions: mostly cloudy
Temperature: 37.0 F (2.8 C)
Dew Point: 32.0 F (0.0 C)
Relative Humidity: 81%
Pressure (altimeter): 29.44 in. Hg (996 hPa)
Pressure tendency: 0.00 inches (0.1 hPa) higher than three hours ago
ob: PASN 201753Z AUTO 00000KT 10SM SCT023 BKN034 03/00 A2944 RMK SLP971 T00280000 10044 21006 53001 TSNO VIA AUTODIAL
cycle: 18

Station Type Date Time Source
PASN TAF 2019/10/20 18:24 UTC NOAA

TAF PASN 201721Z 2018/2118 22007KT P6SM -SHRA SCT020 BKN035
FM210200 VRB04KT P6SM -SHRA BKN025

Example: see airport list